sensor_id;sensor_type;location;lat;lon;timestamp;P1;durP1;ratioP1;P2;durP2;ratioP2
9436;SDS011;4757;59.334;18.034;2023-06-14T00:01:50;2.50;;;2.13;;
9436;SDS011;4757;59.334;18.034;2023-06-14T00:04:28;3.53;;;2.53;;
9436;SDS011;4757;59.334;18.034;2023-06-14T00:07:01;3.23;;;2.20;;
9436;SDS011;4757;59.334;18.034;2023-06-14T00:09:40;4.43;;;2.20;;
9436;SDS011;4757;59.334;18.034;2023-06-14T00:12:19;6.80;;;2.10;;
9436;SDS011;4757;59.334;18.034;2023-06-14T00:14:46;4.17;;;2.50;;
9436;SDS011;4757;59.334;18.034;2023-06-14T00:17:19;7.37;;;2.90;;
9436;SDS011;4757;59.334;18.034;2023-06-14T00:19:50;4.73;;;2.80;;
9436;SDS011;4757;59.334;18.034;2023-06-14T00:22:17;4.77;;;2.70;;
9436;SDS011;4757;59.334;18.034;2023-06-14T00:24:51;9.27;;;3.23;;
9436;SDS011;4757;59.334;18.034;2023-06-14T00:27:22;5.50;;;2.40;;
9436;SDS011;4757;59.334;18.034;2023-06-14T00:29:55;6.70;;;2.70;;
9436;SDS011;4757;59.334;18.034;2023-06-14T00:32:25;3.23;;;2.60;;
9436;SDS011;4757;59.334;18.034;2023-06-14T00:34:55;3.60;;;2.43;;
9436;SDS011;4757;59.334;18.034;2023-06-14T00:37:25;10.33;;;3.30;;
9436;SDS011;4757;59.334;18.034;2023-06-14T00:39:56;7.40;;;2.90;;
9436;SDS011;4757;59.334;18.034;2023-06-14T00:42:28;7.40;;;2.73;;
9436;SDS011;4757;59.334;18.034;2023-06-14T00:44:59;7.27;;;2.53;;
9436;SDS011;4757;59.334;18.034;2023-06-14T00:47:35;4.00;;;2.70;;
9436;SDS011;4757;59.334;18.034;2023-06-14T00:50:12;6.03;;;2.53;;
9436;SDS011;4757;59.334;18.034;2023-06-14T00:52:52;10.17;;;2.97;;
9436;SDS011;4757;59.334;18.034;2023-06-14T00:55:35;6.60;;;2.40;;
9436;SDS011;4757;59.334;18.034;2023-06-14T00:58:19;3.87;;;2.50;;
9436;SDS011;4757;59.334;18.034;2023-06-14T01:00:57;2.73;;;2.17;;
9436;SDS011;4757;59.334;18.034;2023-06-14T01:03:28;5.53;;;2.87;;
9436;SDS011;4757;59.334;18.034;2023-06-14T01:06:22;4.43;;;2.23;;
9436;SDS011;4757;59.334;18.034;2023-06-14T01:09:27;4.70;;;2.50;;
9436;SDS011;4757;59.334;18.034;2023-06-14T01:12:35;3.43;;;2.33;;
9436;SDS011;4757;59.334;18.034;2023-06-14T01:15:26;3.33;;;2.20;;
9436;SDS011;4757;59.334;18.034;2023-06-14T01:18:00;6.57;;;2.80;;
9436;SDS011;4757;59.334;18.034;2023-06-14T01:20:32;5.30;;;2.30;;
9436;SDS011;4757;59.334;18.034;2023-06-14T01:23:04;3.67;;;2.93;;
9436;SDS011;4757;59.334;18.034;2023-06-14T01:25:38;8.17;;;3.13;;
9436;SDS011;4757;59.334;18.034;2023-06-14T01:28:10;3.50;;;2.50;;
9436;SDS011;4757;59.334;18.034;2023-06-14T01:34:21;8.17;;;2.60;;
9436;SDS011;4757;59.334;18.034;2023-06-14T01:41:28;3.00;;;2.73;;
9436;SDS011;4757;59.334;18.034;2023-06-14T01:44:05;6.30;;;2.60;;
9436;SDS011;4757;59.334;18.034;2023-06-14T01:46:57;4.10;;;2.67;;
9436;SDS011;4757;59.334;18.034;2023-06-14T01:49:38;6.83;;;2.60;;
9436;SDS011;4757;59.334;18.034;2023-06-14T01:52:18;6.13;;;2.80;;
9436;SDS011;4757;59.334;18.034;2023-06-14T01:55:02;5.50;;;2.70;;
9436;SDS011;4757;59.334;18.034;2023-06-14T01:57:37;7.87;;;3.03;;
9436;SDS011;4757;59.334;18.034;2023-06-14T02:00:39;5.20;;;2.83;;
9436;SDS011;4757;59.334;18.034;2023-06-14T02:03:17;4.57;;;2.70;;
9436;SDS011;4757;59.334;18.034;2023-06-14T02:05:55;3.67;;;2.73;;
9436;SDS011;4757;59.334;18.034;2023-06-14T02:08:32;7.57;;;2.93;;
9436;SDS011;4757;59.334;18.034;2023-06-14T02:11:08;6.87;;;3.30;;
9436;SDS011;4757;59.334;18.034;2023-06-14T02:13:45;13.30;;;4.03;;
9436;SDS011;4757;59.334;18.034;2023-06-14T02:16:27;19.43;;;8.40;;
9436;SDS011;4757;59.334;18.034;2023-06-14T02:19:05;7.87;;;3.67;;
9436;SDS011;4757;59.334;18.034;2023-06-14T02:21:47;7.87;;;2.90;;
9436;SDS011;4757;59.334;18.034;2023-06-14T02:24:24;6.07;;;2.67;;
9436;SDS011;4757;59.334;18.034;2023-06-14T02:27:03;4.67;;;2.50;;
9436;SDS011;4757;59.334;18.034;2023-06-14T02:29:37;3.43;;;2.50;;
9436;SDS011;4757;59.334;18.034;2023-06-14T02:32:14;5.60;;;2.60;;
9436;SDS011;4757;59.334;18.034;2023-06-14T02:34:49;7.03;;;2.93;;
9436;SDS011;4757;59.334;18.034;2023-06-14T02:37:22;7.90;;;2.67;;
9436;SDS011;4757;59.334;18.034;2023-06-14T02:39:55;10.43;;;3.27;;
9436;SDS011;4757;59.334;18.034;2023-06-14T02:42:25;9.13;;;3.13;;
9436;SDS011;4757;59.334;18.034;2023-06-14T02:44:53;5.13;;;3.17;;
9436;SDS011;4757;59.334;18.034;2023-06-14T02:47:21;5.70;;;2.83;;
9436;SDS011;4757;59.334;18.034;2023-06-14T02:49:54;10.13;;;2.93;;
9436;SDS011;4757;59.334;18.034;2023-06-14T02:52:36;11.27;;;3.00;;
9436;SDS011;4757;59.334;18.034;2023-06-14T02:55:17;9.40;;;2.90;;
9436;SDS011;4757;59.334;18.034;2023-06-14T02:57:46;4.33;;;3.17;;
9436;SDS011;4757;59.334;18.034;2023-06-14T03:00:16;4.73;;;2.60;;
9436;SDS011;4757;59.334;18.034;2023-06-14T03:02:57;15.23;;;3.67;;
9436;SDS011;4757;59.334;18.034;2023-06-14T03:05:32;3.97;;;2.70;;
9436;SDS011;4757;59.334;18.034;2023-06-14T03:08:09;11.03;;;2.60;;
9436;SDS011;4757;59.334;18.034;2023-06-14T03:10:49;9.17;;;3.07;;
9436;SDS011;4757;59.334;18.034;2023-06-14T03:13:17;5.77;;;2.73;;
9436;SDS011;4757;59.334;18.034;2023-06-14T03:15:56;8.70;;;4.20;;
9436;SDS011;4757;59.334;18.034;2023-06-14T03:18:34;10.33;;;3.27;;
9436;SDS011;4757;59.334;18.034;2023-06-14T03:21:03;8.30;;;3.37;;
9436;SDS011;4757;59.334;18.034;2023-06-14T03:23:34;5.17;;;2.83;;
9436;SDS011;4757;59.334;18.034;2023-06-14T03:26:02;9.83;;;2.97;;
9436;SDS011;4757;59.334;18.034;2023-06-14T03:28:38;7.20;;;3.30;;
9436;SDS011;4757;59.334;18.034;2023-06-14T03:31:09;3.47;;;2.93;;
9436;SDS011;4757;59.334;18.034;2023-06-14T03:33:41;4.53;;;2.30;;
9436;SDS011;4757;59.334;18.034;2023-06-14T03:36:10;4.63;;;2.80;;
9436;SDS011;4757;59.334;18.034;2023-06-14T03:38:37;4.33;;;2.80;;
9436;SDS011;4757;59.334;18.034;2023-06-14T03:41:10;7.63;;;2.87;;
9436;SDS011;4757;59.334;18.034;2023-06-14T03:43:51;13.37;;;3.40;;
9436;SDS011;4757;59.334;18.034;2023-06-14T03:46:19;9.77;;;2.80;;
9436;SDS011;4757;59.334;18.034;2023-06-14T03:48:47;8.07;;;3.17;;
9436;SDS011;4757;59.334;18.034;2023-06-14T03:51:21;10.30;;;3.20;;
9436;SDS011;4757;59.334;18.034;2023-06-14T03:53:49;7.70;;;3.37;;
9436;SDS011;4757;59.334;18.034;2023-06-14T03:56:46;6.97;;;3.67;;
9436;SDS011;4757;59.334;18.034;2023-06-14T03:59:15;6.83;;;2.93;;
9436;SDS011;4757;59.334;18.034;2023-06-14T04:01:43;12.57;;;4.70;;
9436;SDS011;4757;59.334;18.034;2023-06-14T04:04:14;6.07;;;3.40;;
9436;SDS011;4757;59.334;18.034;2023-06-14T04:06:48;9.50;;;3.83;;
9436;SDS011;4757;59.334;18.034;2023-06-14T04:09:26;6.80;;;3.40;;
9436;SDS011;4757;59.334;18.034;2023-06-14T04:12:00;9.20;;;3.20;;
9436;SDS011;4757;59.334;18.034;2023-06-14T04:14:28;7.70;;;3.20;;
9436;SDS011;4757;59.334;18.034;2023-06-14T04:17:11;11.87;;;3.53;;
9436;SDS011;4757;59.334;18.034;2023-06-14T04:19:42;8.20;;;3.43;;
9436;SDS011;4757;59.334;18.034;2023-06-14T04:22:19;6.73;;;3.30;;
9436;SDS011;4757;59.334;18.034;2023-06-14T04:24:53;6.03;;;3.63;;
9436;SDS011;4757;59.334;18.034;2023-06-14T04:27:36;8.67;;;3.73;;
9436;SDS011;4757;59.334;18.034;2023-06-14T04:30:13;9.43;;;3.67;;
9436;SDS011;4757;59.334;18.034;2023-06-14T04:32:59;12.87;;;4.00;;
9436;SDS011;4757;59.334;18.034;2023-06-14T04:35:33;15.73;;;3.90;;
9436;SDS011;4757;59.334;18.034;2023-06-14T04:38:06;9.87;;;4.10;;
9436;SDS011;4757;59.334;18.034;2023-06-14T04:40:36;14.60;;;5.90;;
9436;SDS011;4757;59.334;18.034;2023-06-14T04:43:15;9.63;;;3.70;;
9436;SDS011;4757;59.334;18.034;2023-06-14T04:45:52;11.53;;;3.17;;
9436;SDS011;4757;59.334;18.034;2023-06-14T04:48:26;7.00;;;3.27;;
9436;SDS011;4757;59.334;18.034;2023-06-14T04:50:56;8.23;;;2.90;;
9436;SDS011;4757;59.334;18.034;2023-06-14T04:53:35;18.93;;;3.73;;
9436;SDS011;4757;59.334;18.034;2023-06-14T04:56:06;18.37;;;4.87;;
9436;SDS011;4757;59.334;18.034;2023-06-14T04:58:37;10.07;;;4.80;;
9436;SDS011;4757;59.334;18.034;2023-06-14T05:01:05;14.63;;;5.23;;
9436;SDS011;4757;59.334;18.034;2023-06-14T05:03:38;21.53;;;5.83;;
9436;SDS011;4757;59.334;18.034;2023-06-14T05:06:11;77.97;;;37.30;;
9436;SDS011;4757;59.334;18.034;2023-06-14T05:08:51;114.50;;;60.27;;
9436;SDS011;4757;59.334;18.034;2023-06-14T05:11:27;170.27;;;100.47;;
9436;SDS011;4757;59.334;18.034;2023-06-14T05:13:58;294.13;;;174.13;;
9436;SDS011;4757;59.334;18.034;2023-06-14T05:16:27;150.00;;;89.77;;
9436;SDS011;4757;59.334;18.034;2023-06-14T05:18:56;468.67;;;303.00;;
9436;SDS011;4757;59.334;18.034;2023-06-14T05:21:27;507.13;;;331.57;;
9436;SDS011;4757;59.334;18.034;2023-06-14T05:24:07;482.53;;;314.47;;
9436;SDS011;4757;59.334;18.034;2023-06-14T05:26:38;505.53;;;338.20;;
9436;SDS011;4757;59.334;18.034;2023-06-14T05:29:09;1100.77;;;700.70;;
9436;SDS011;4757;59.334;18.034;2023-06-14T05:31:37;818.70;;;558.07;;
9436;SDS011;4757;59.334;18.034;2023-06-14T05:34:05;687.57;;;494.40;;
9436;SDS011;4757;59.334;18.034;2023-06-14T05:36:36;428.80;;;285.67;;
9436;SDS011;4757;59.334;18.034;2023-06-14T05:39:09;689.27;;;491.03;;
9436;SDS011;4757;59.334;18.034;2023-06-14T05:41:41;437.37;;;284.13;;
9436;SDS011;4757;59.334;18.034;2023-06-14T05:44:09;223.07;;;133.53;;
9436;SDS011;4757;59.334;18.034;2023-06-14T05:46:41;67.37;;;43.43;;
9436;SDS011;4757;59.334;18.034;2023-06-14T05:49:09;40.90;;;24.77;;
9436;SDS011;4757;59.334;18.034;2023-06-14T05:51:38;26.83;;;16.30;;
9436;SDS011;4757;59.334;18.034;2023-06-14T05:54:05;54.90;;;30.20;;
9436;SDS011;4757;59.334;18.034;2023-06-14T05:56:32;15.93;;;8.93;;
9436;SDS011;4757;59.334;18.034;2023-06-14T05:59:00;21.37;;;10.47;;
9436;SDS011;4757;59.334;18.034;2023-06-14T06:01:29;33.30;;;11.50;;
9436;SDS011;4757;59.334;18.034;2023-06-14T06:03:57;22.73;;;7.80;;
9436;SDS011;4757;59.334;18.034;2023-06-14T06:06:24;19.30;;;6.60;;
9436;SDS011;4757;59.334;18.034;2023-06-14T06:08:51;13.63;;;6.47;;
9436;SDS011;4757;59.334;18.034;2023-06-14T06:11:19;24.83;;;6.67;;
9436;SDS011;4757;59.334;18.034;2023-06-14T06:13:46;15.70;;;6.17;;
9436;SDS011;4757;59.334;18.034;2023-06-14T06:16:14;13.17;;;6.50;;
9436;SDS011;4757;59.334;18.034;2023-06-14T06:18:42;14.03;;;6.63;;
9436;SDS011;4757;59.334;18.034;2023-06-14T06:21:11;16.87;;;6.40;;
9436;SDS011;4757;59.334;18.034;2023-06-14T06:23:38;19.87;;;6.40;;
9436;SDS011;4757;59.334;18.034;2023-06-14T06:26:05;13.63;;;5.60;;
9436;SDS011;4757;59.334;18.034;2023-06-14T06:28:32;15.50;;;5.43;;
9436;SDS011;4757;59.334;18.034;2023-06-14T06:31:00;14.48;;;5.82;;
9436;SDS011;4757;59.334;18.034;2023-06-14T06:33:30;13.63;;;5.53;;
9436;SDS011;4757;59.334;18.034;2023-06-14T06:35:57;11.70;;;5.55;;
9436;SDS011;4757;59.334;18.034;2023-06-14T06:38:24;20.70;;;5.75;;
9436;SDS011;4757;59.334;18.034;2023-06-14T06:40:52;19.80;;;6.22;;
9436;SDS011;4757;59.334;18.034;2023-06-14T06:43:20;16.08;;;5.93;;
9436;SDS011;4757;59.334;18.034;2023-06-14T06:45:48;15.68;;;5.38;;
9436;SDS011;4757;59.334;18.034;2023-06-14T06:48:15;20.23;;;4.50;;
9436;SDS011;4757;59.334;18.034;2023-06-14T06:50:43;10.68;;;4.35;;
9436;SDS011;4757;59.334;18.034;2023-06-14T06:53:10;11.45;;;4.00;;
9436;SDS011;4757;59.334;18.034;2023-06-14T06:55:41;13.60;;;4.07;;
9436;SDS011;4757;59.334;18.034;2023-06-14T06:58:08;11.23;;;5.10;;
9436;SDS011;4757;59.334;18.034;2023-06-14T07:00:39;21.13;;;7.28;;
9436;SDS011;4757;59.334;18.034;2023-06-14T07:03:09;14.43;;;4.30;;
9436;SDS011;4757;59.334;18.034;2023-06-14T07:05:39;12.00;;;4.45;;
9436;SDS011;4757;59.334;18.034;2023-06-14T07:08:07;7.30;;;3.13;;
9436;SDS011;4757;59.334;18.034;2023-06-14T07:10:34;6.75;;;3.33;;
9436;SDS011;4757;59.334;18.034;2023-06-14T07:13:04;19.50;;;4.43;;
9436;SDS011;4757;59.334;18.034;2023-06-14T07:15:33;5.80;;;3.30;;
9436;SDS011;4757;59.334;18.034;2023-06-14T07:18:01;10.38;;;3.67;;
9436;SDS011;4757;59.334;18.034;2023-06-14T07:20:28;5.70;;;3.42;;
9436;SDS011;4757;59.334;18.034;2023-06-14T07:22:57;7.70;;;3.63;;
9436;SDS011;4757;59.334;18.034;2023-06-14T07:25:24;8.48;;;3.08;;
9436;SDS011;4757;59.334;18.034;2023-06-14T07:27:54;4.55;;;3.53;;
9436;SDS011;4757;59.334;18.034;2023-06-14T07:30:21;5.80;;;2.95;;
9436;SDS011;4757;59.334;18.034;2023-06-14T07:32:52;3.67;;;3.00;;
9436;SDS011;4757;59.334;18.034;2023-06-14T07:35:21;6.13;;;3.95;;
9436;SDS011;4757;59.334;18.034;2023-06-14T07:37:48;4.78;;;3.40;;
9436;SDS011;4757;59.334;18.034;2023-06-14T07:40:19;5.60;;;3.10;;
9436;SDS011;4757;59.334;18.034;2023-06-14T07:42:47;3.15;;;2.85;;
9436;SDS011;4757;59.334;18.034;2023-06-14T07:45:16;3.95;;;2.92;;
9436;SDS011;4757;59.334;18.034;2023-06-14T07:47:44;2.75;;;2.47;;
9436;SDS011;4757;59.334;18.034;2023-06-14T07:50:11;5.38;;;2.70;;
9436;SDS011;4757;59.334;18.034;2023-06-14T07:52:40;3.63;;;2.55;;
9436;SDS011;4757;59.334;18.034;2023-06-14T07:55:08;6.28;;;3.13;;
9436;SDS011;4757;59.334;18.034;2023-06-14T07:57:36;9.95;;;3.63;;
9436;SDS011;4757;59.334;18.034;2023-06-14T08:00:05;5.57;;;3.40;;
9436;SDS011;4757;59.334;18.034;2023-06-14T08:02:39;5.90;;;3.40;;
9436;SDS011;4757;59.334;18.034;2023-06-14T08:05:10;5.50;;;3.05;;
9436;SDS011;4757;59.334;18.034;2023-06-14T08:07:41;5.65;;;3.72;;
9436;SDS011;4757;59.334;18.034;2023-06-14T08:10:10;7.25;;;3.63;;
9436;SDS011;4757;59.334;18.034;2023-06-14T08:12:48;7.45;;;3.30;;
9436;SDS011;4757;59.334;18.034;2023-06-14T08:15:23;4.00;;;2.50;;
9436;SDS011;4757;59.334;18.034;2023-06-14T08:17:59;6.45;;;3.60;;
9436;SDS011;4757;59.334;18.034;2023-06-14T08:20:27;10.05;;;3.67;;
9436;SDS011;4757;59.334;18.034;2023-06-14T08:22:59;6.78;;;3.28;;
9436;SDS011;4757;59.334;18.034;2023-06-14T08:25:26;5.20;;;3.60;;
9436;SDS011;4757;59.334;18.034;2023-06-14T08:28:05;6.63;;;3.17;;
9436;SDS011;4757;59.334;18.034;2023-06-14T08:30:54;3.40;;;3.15;;
9436;SDS011;4757;59.334;18.034;2023-06-14T08:33:20;6.95;;;3.17;;
9436;SDS011;4757;59.334;18.034;2023-06-14T08:35:51;5.70;;;3.45;;
9436;SDS011;4757;59.334;18.034;2023-06-14T08:38:31;8.75;;;4.00;;
9436;SDS011;4757;59.334;18.034;2023-06-14T08:41:01;4.40;;;3.65;;
9436;SDS011;4757;59.334;18.034;2023-06-14T08:43:32;3.65;;;3.35;;
9436;SDS011;4757;59.334;18.034;2023-06-14T08:46:03;6.10;;;3.60;;
9436;SDS011;4757;59.334;18.034;2023-06-14T08:48:41;5.30;;;3.88;;
9436;SDS011;4757;59.334;18.034;2023-06-14T08:51:25;3.28;;;2.97;;
9436;SDS011;4757;59.334;18.034;2023-06-14T08:54:00;4.20;;;3.60;;
9436;SDS011;4757;59.334;18.034;2023-06-14T08:56:35;5.72;;;3.58;;
9436;SDS011;4757;59.334;18.034;2023-06-14T08:59:04;6.18;;;3.75;;
9436;SDS011;4757;59.334;18.034;2023-06-14T09:01:33;5.82;;;3.67;;
9436;SDS011;4757;59.334;18.034;2023-06-14T09:04:02;7.93;;;3.58;;
9436;SDS011;4757;59.334;18.034;2023-06-14T09:06:32;9.50;;;3.72;;
9436;SDS011;4757;59.334;18.034;2023-06-14T09:08:59;4.15;;;3.67;;
9436;SDS011;4757;59.334;18.034;2023-06-14T09:11:35;5.65;;;3.65;;
9436;SDS011;4757;59.334;18.034;2023-06-14T09:14:03;4.28;;;3.80;;
9436;SDS011;4757;59.334;18.034;2023-06-14T09:16:32;3.70;;;3.40;;
9436;SDS011;4757;59.334;18.034;2023-06-14T09:19:00;5.07;;;3.38;;
9436;SDS011;4757;59.334;18.034;2023-06-14T09:21:29;4.65;;;3.67;;
9436;SDS011;4757;59.334;18.034;2023-06-14T09:24:04;10.82;;;4.28;;
9436;SDS011;4757;59.334;18.034;2023-06-14T09:26:35;4.47;;;3.65;;
9436;SDS011;4757;59.334;18.034;2023-06-14T09:29:06;7.75;;;4.00;;
9436;SDS011;4757;59.334;18.034;2023-06-14T09:31:34;4.20;;;3.72;;
9436;SDS011;4757;59.334;18.034;2023-06-14T09:34:05;5.40;;;4.18;;
9436;SDS011;4757;59.334;18.034;2023-06-14T09:36:34;7.22;;;4.32;;
9436;SDS011;4757;59.334;18.034;2023-06-14T09:39:05;16.00;;;5.00;;
9436;SDS011;4757;59.334;18.034;2023-06-14T09:41:40;8.07;;;4.80;;
9436;SDS011;4757;59.334;18.034;2023-06-14T09:44:10;4.40;;;3.83;;
9436;SDS011;4757;59.334;18.034;2023-06-14T09:46:53;9.65;;;4.80;;
9436;SDS011;4757;59.334;18.034;2023-06-14T09:49:22;6.13;;;4.15;;
9436;SDS011;4757;59.334;18.034;2023-06-14T09:51:54;4.50;;;4.10;;
9436;SDS011;4757;59.334;18.034;2023-06-14T09:54:29;6.55;;;4.53;;
9436;SDS011;4757;59.334;18.034;2023-06-14T09:56:58;6.05;;;3.50;;
9436;SDS011;4757;59.334;18.034;2023-06-14T09:59:26;5.50;;;4.53;;
9436;SDS011;4757;59.334;18.034;2023-06-14T10:02:04;5.55;;;5.05;;
9436;SDS011;4757;59.334;18.034;2023-06-14T10:04:45;8.60;;;4.88;;
9436;SDS011;4757;59.334;18.034;2023-06-14T10:07:18;4.63;;;4.25;;
9436;SDS011;4757;59.334;18.034;2023-06-14T10:09:47;10.15;;;4.32;;
9436;SDS011;4757;59.334;18.034;2023-06-14T10:12:16;4.95;;;4.35;;
9436;SDS011;4757;59.334;18.034;2023-06-14T10:14:50;4.88;;;3.85;;
9436;SDS011;4757;59.334;18.034;2023-06-14T10:20:34;6.07;;;4.55;;
9436;SDS011;4757;59.334;18.034;2023-06-14T10:23:22;9.30;;;4.90;;
9436;SDS011;4757;59.334;18.034;2023-06-14T10:25:56;9.13;;;5.80;;
9436;SDS011;4757;59.334;18.034;2023-06-14T10:28:26;6.50;;;4.55;;
9436;SDS011;4757;59.334;18.034;2023-06-14T10:31:07;6.32;;;4.53;;
9436;SDS011;4757;59.334;18.034;2023-06-14T10:33:50;5.32;;;4.05;;
9436;SDS011;4757;59.334;18.034;2023-06-14T10:41:26;9.20;;;4.65;;
9436;SDS011;4757;59.334;18.034;2023-06-14T10:46:50;4.95;;;4.13;;
9436;SDS011;4757;59.334;18.034;2023-06-14T10:49:20;4.30;;;3.40;;
9436;SDS011;4757;59.334;18.034;2023-06-14T10:52:05;5.90;;;4.35;;
9436;SDS011;4757;59.334;18.034;2023-06-14T10:57:31;7.80;;;6.25;;
9436;SDS011;4757;59.334;18.034;2023-06-14T11:00:18;13.30;;;4.70;;
9436;SDS011;4757;59.334;18.034;2023-06-14T11:05:50;4.70;;;4.30;;
9436;SDS011;4757;59.334;18.034;2023-06-14T11:11:11;4.53;;;4.10;;
9436;SDS011;4757;59.334;18.034;2023-06-14T11:13:41;5.07;;;4.50;;
9436;SDS011;4757;59.334;18.034;2023-06-14T11:16:12;6.38;;;4.10;;
9436;SDS011;4757;59.334;18.034;2023-06-14T11:18:45;8.55;;;4.05;;
9436;SDS011;4757;59.334;18.034;2023-06-14T11:21:16;7.93;;;4.03;;
9436;SDS011;4757;59.334;18.034;2023-06-14T11:23:51;9.30;;;4.38;;
9436;SDS011;4757;59.334;18.034;2023-06-14T11:26:26;4.95;;;3.80;;
9436;SDS011;4757;59.334;18.034;2023-06-14T11:29:06;4.38;;;3.28;;
9436;SDS011;4757;59.334;18.034;2023-06-14T11:31:33;8.15;;;4.07;;
9436;SDS011;4757;59.334;18.034;2023-06-14T11:34:01;5.93;;;3.85;;
9436;SDS011;4757;59.334;18.034;2023-06-14T11:36:29;9.27;;;4.18;;
9436;SDS011;4757;59.334;18.034;2023-06-14T11:39:06;4.57;;;3.45;;
9436;SDS011;4757;59.334;18.034;2023-06-14T11:41:40;6.25;;;3.83;;
9436;SDS011;4757;59.334;18.034;2023-06-14T11:44:14;8.60;;;4.47;;
9436;SDS011;4757;59.334;18.034;2023-06-14T11:46:44;4.88;;;3.92;;
9436;SDS011;4757;59.334;18.034;2023-06-14T11:49:14;4.18;;;3.70;;
9436;SDS011;4757;59.334;18.034;2023-06-14T11:51:42;8.48;;;4.45;;
9436;SDS011;4757;59.334;18.034;2023-06-14T11:54:10;4.53;;;3.65;;
9436;SDS011;4757;59.334;18.034;2023-06-14T11:56:41;4.20;;;3.60;;
9436;SDS011;4757;59.334;18.034;2023-06-14T11:59:12;5.65;;;3.80;;
9436;SDS011;4757;59.334;18.034;2023-06-14T12:01:45;5.07;;;3.67;;
9436;SDS011;4757;59.334;18.034;2023-06-14T12:04:26;6.07;;;3.88;;
9436;SDS011;4757;59.334;18.034;2023-06-14T12:10:30;5.97;;;5.05;;
9436;SDS011;4757;59.334;18.034;2023-06-14T12:13:17;5.53;;;3.90;;
9436;SDS011;4757;59.334;18.034;2023-06-14T12:16:30;9.80;;;4.32;;
9436;SDS011;4757;59.334;18.034;2023-06-14T12:19:43;5.28;;;4.00;;
9436;SDS011;4757;59.334;18.034;2023-06-14T12:22:37;4.55;;;3.67;;
9436;SDS011;4757;59.334;18.034;2023-06-14T12:25:33;6.97;;;4.30;;
9436;SDS011;4757;59.334;18.034;2023-06-14T12:28:13;3.65;;;3.30;;
9436;SDS011;4757;59.334;18.034;2023-06-14T12:30:46;4.40;;;3.50;;
9436;SDS011;4757;59.334;18.034;2023-06-14T12:33:17;5.35;;;3.92;;
9436;SDS011;4757;59.334;18.034;2023-06-14T12:35:45;3.80;;;3.50;;
9436;SDS011;4757;59.334;18.034;2023-06-14T12:38:17;5.80;;;3.45;;
9436;SDS011;4757;59.334;18.034;2023-06-14T12:40:45;4.20;;;3.50;;
9436;SDS011;4757;59.334;18.034;2023-06-14T12:43:16;9.20;;;3.90;;
9436;SDS011;4757;59.334;18.034;2023-06-14T12:45:50;6.32;;;3.50;;
9436;SDS011;4757;59.334;18.034;2023-06-14T12:48:23;4.93;;;3.70;;
9436;SDS011;4757;59.334;18.034;2023-06-14T12:50:55;4.80;;;3.90;;
9436;SDS011;4757;59.334;18.034;2023-06-14T12:53:26;6.88;;;3.90;;
9436;SDS011;4757;59.334;18.034;2023-06-14T12:56:01;4.00;;;3.70;;
9436;SDS011;4757;59.334;18.034;2023-06-14T12:58:41;5.40;;;3.80;;
9436;SDS011;4757;59.334;18.034;2023-06-14T13:01:14;5.03;;;3.72;;
9436;SDS011;4757;59.334;18.034;2023-06-14T13:03:53;5.68;;;4.95;;
9436;SDS011;4757;59.334;18.034;2023-06-14T13:06:30;6.65;;;4.72;;
9436;SDS011;4757;59.334;18.034;2023-06-14T13:09:03;4.53;;;3.55;;
9436;SDS011;4757;59.334;18.034;2023-06-14T13:11:40;7.20;;;4.53;;
9436;SDS011;4757;59.334;18.034;2023-06-14T13:14:24;4.10;;;3.70;;
9436;SDS011;4757;59.334;18.034;2023-06-14T13:16:55;4.03;;;3.65;;
9436;SDS011;4757;59.334;18.034;2023-06-14T13:19:27;7.30;;;4.25;;
9436;SDS011;4757;59.334;18.034;2023-06-14T13:21:58;7.97;;;4.75;;
9436;SDS011;4757;59.334;18.034;2023-06-14T13:24:45;4.55;;;3.88;;
9436;SDS011;4757;59.334;18.034;2023-06-14T13:27:12;5.65;;;4.47;;
9436;SDS011;4757;59.334;18.034;2023-06-14T13:29:45;6.88;;;4.35;;
9436;SDS011;4757;59.334;18.034;2023-06-14T13:32:16;4.97;;;4.15;;
9436;SDS011;4757;59.334;18.034;2023-06-14T13:35:02;6.55;;;4.95;;
9436;SDS011;4757;59.334;18.034;2023-06-14T13:37:34;4.32;;;4.00;;
9436;SDS011;4757;59.334;18.034;2023-06-14T13:40:06;4.75;;;4.30;;
9436;SDS011;4757;59.334;18.034;2023-06-14T13:42:35;6.45;;;4.07;;
9436;SDS011;4757;59.334;18.034;2023-06-14T13:45:08;8.25;;;4.38;;
9436;SDS011;4757;59.334;18.034;2023-06-14T13:47:38;5.57;;;3.92;;
9436;SDS011;4757;59.334;18.034;2023-06-14T13:50:06;5.88;;;4.13;;
9436;SDS011;4757;59.334;18.034;2023-06-14T13:52:48;4.38;;;3.90;;
9436;SDS011;4757;59.334;18.034;2023-06-14T13:55:32;4.88;;;3.92;;
9436;SDS011;4757;59.334;18.034;2023-06-14T13:58:03;5.85;;;4.55;;
9436;SDS011;4757;59.334;18.034;2023-06-14T14:00:44;4.90;;;3.80;;
9436;SDS011;4757;59.334;18.034;2023-06-14T14:03:26;4.43;;;4.03;;
9436;SDS011;4757;59.334;18.034;2023-06-14T14:05:55;9.45;;;4.13;;
9436;SDS011;4757;59.334;18.034;2023-06-14T14:08:27;4.85;;;3.60;;
9436;SDS011;4757;59.334;18.034;2023-06-14T14:11:00;5.82;;;3.80;;
9436;SDS011;4757;59.334;18.034;2023-06-14T14:13:44;6.32;;;3.47;;
9436;SDS011;4757;59.334;18.034;2023-06-14T14:16:13;4.75;;;4.13;;
9436;SDS011;4757;59.334;18.034;2023-06-14T14:18:45;7.20;;;4.78;;
9436;SDS011;4757;59.334;18.034;2023-06-14T14:21:12;6.28;;;5.68;;
9436;SDS011;4757;59.334;18.034;2023-06-14T14:23:40;4.85;;;4.32;;
9436;SDS011;4757;59.334;18.034;2023-06-14T14:26:08;4.22;;;3.92;;
9436;SDS011;4757;59.334;18.034;2023-06-14T14:28:36;6.00;;;4.63;;
9436;SDS011;4757;59.334;18.034;2023-06-14T14:31:09;7.63;;;3.92;;
9436;SDS011;4757;59.334;18.034;2023-06-14T14:33:42;4.60;;;3.67;;
9436;SDS011;4757;59.334;18.034;2023-06-14T14:36:10;8.23;;;3.95;;
9436;SDS011;4757;59.334;18.034;2023-06-14T14:38:57;6.25;;;4.20;;
9436;SDS011;4757;59.334;18.034;2023-06-14T14:41:30;7.32;;;3.90;;
9436;SDS011;4757;59.334;18.034;2023-06-14T14:44:00;4.88;;;4.10;;
9436;SDS011;4757;59.334;18.034;2023-06-14T14:46:29;6.43;;;4.30;;
9436;SDS011;4757;59.334;18.034;2023-06-14T14:48:58;6.60;;;3.90;;
9436;SDS011;4757;59.334;18.034;2023-06-14T14:51:31;6.93;;;3.83;;
9436;SDS011;4757;59.334;18.034;2023-06-14T14:53:59;6.05;;;3.70;;
9436;SDS011;4757;59.334;18.034;2023-06-14T14:56:31;6.45;;;4.00;;
9436;SDS011;4757;59.334;18.034;2023-06-14T14:59:04;5.25;;;3.63;;
9436;SDS011;4757;59.334;18.034;2023-06-14T15:01:32;11.13;;;4.82;;
9436;SDS011;4757;59.334;18.034;2023-06-14T15:04:00;5.05;;;4.10;;
9436;SDS011;4757;59.334;18.034;2023-06-14T15:06:28;4.85;;;3.50;;
9436;SDS011;4757;59.334;18.034;2023-06-14T15:08:55;4.47;;;3.70;;
9436;SDS011;4757;59.334;18.034;2023-06-14T15:11:27;8.13;;;4.80;;
9436;SDS011;4757;59.334;18.034;2023-06-14T15:13:57;15.70;;;4.47;;
9436;SDS011;4757;59.334;18.034;2023-06-14T15:16:25;5.22;;;4.07;;
9436;SDS011;4757;59.334;18.034;2023-06-14T15:18:53;7.57;;;4.20;;
9436;SDS011;4757;59.334;18.034;2023-06-14T15:21:21;8.45;;;3.70;;
9436;SDS011;4757;59.334;18.034;2023-06-14T15:23:52;5.25;;;3.72;;
9436;SDS011;4757;59.334;18.034;2023-06-14T15:26:20;6.85;;;4.45;;
9436;SDS011;4757;59.334;18.034;2023-06-14T15:28:50;4.85;;;4.35;;
9436;SDS011;4757;59.334;18.034;2023-06-14T15:31:20;6.35;;;4.07;;
9436;SDS011;4757;59.334;18.034;2023-06-14T15:33:56;7.10;;;3.78;;
9436;SDS011;4757;59.334;18.034;2023-06-14T15:36:24;5.50;;;3.28;;
9436;SDS011;4757;59.334;18.034;2023-06-14T15:39:05;4.07;;;3.67;;
9436;SDS011;4757;59.334;18.034;2023-06-14T15:41:34;4.53;;;3.78;;
9436;SDS011;4757;59.334;18.034;2023-06-14T15:44:01;8.02;;;5.80;;
9436;SDS011;4757;59.334;18.034;2023-06-14T15:46:29;3.85;;;3.50;;
9436;SDS011;4757;59.334;18.034;2023-06-14T15:48:56;7.57;;;4.07;;
9436;SDS011;4757;59.334;18.034;2023-06-14T15:51:24;7.05;;;3.92;;
9436;SDS011;4757;59.334;18.034;2023-06-14T15:53:55;6.57;;;3.45;;
9436;SDS011;4757;59.334;18.034;2023-06-14T15:56:35;4.63;;;3.58;;
9436;SDS011;4757;59.334;18.034;2023-06-14T15:59:02;8.50;;;4.55;;
9436;SDS011;4757;59.334;18.034;2023-06-14T16:01:36;4.25;;;3.85;;
9436;SDS011;4757;59.334;18.034;2023-06-14T16:04:04;4.22;;;3.67;;